sensor_id;sensor_type;location;lat;lon;timestamp;temperature;humidity
32446;DHT22;18899;50.748;7.102;2023-05-07T00:00:24;14.50;99.90
32446;DHT22;18899;50.748;7.102;2023-05-07T00:02:49;14.40;99.90
32446;DHT22;18899;50.748;7.102;2023-05-07T00:05:15;14.40;99.90
32446;DHT22;18899;50.748;7.102;2023-05-07T00:07:41;14.30;99.90
32446;DHT22;18899;50.748;7.102;2023-05-07T00:10:07;14.20;99.90
32446;DHT22;18899;50.748;7.102;2023-05-07T00:12:33;14.20;99.90
32446;DHT22;18899;50.748;7.102;2023-05-07T00:15:02;14.20;99.90
32446;DHT22;18899;50.748;7.102;2023-05-07T00:17:29;14.20;99.90
32446;DHT22;18899;50.748;7.102;2023-05-07T00:19:55;14.20;99.90
32446;DHT22;18899;50.748;7.102;2023-05-07T00:22:20;14.40;99.90
32446;DHT22;18899;50.748;7.102;2023-05-07T00:24:46;14.50;99.90
32446;DHT22;18899;50.748;7.102;2023-05-07T00:27:12;14.60;99.90
32446;DHT22;18899;50.748;7.102;2023-05-07T00:29:37;14.70;99.90
32446;DHT22;18899;50.748;7.102;2023-05-07T00:32:03;14.80;99.90
32446;DHT22;18899;50.748;7.102;2023-05-07T00:34:28;14.80;99.90
32446;DHT22;18899;50.748;7.102;2023-05-07T00:36:54;14.70;99.90
32446;DHT22;18899;50.748;7.102;2023-05-07T00:39:20;14.80;99.90
32446;DHT22;18899;50.748;7.102;2023-05-07T00:41:45;14.80;99.90
32446;DHT22;18899;50.748;7.102;2023-05-07T00:44:11;14.80;99.90
32446;DHT22;18899;50.748;7.102;2023-05-07T00:46:37;15.00;99.90
32446;DHT22;18899;50.748;7.102;2023-05-07T00:49:03;15.00;99.90
32446;DHT22;18899;50.748;7.102;2023-05-07T00:51:30;15.00;99.90
32446;DHT22;18899;50.748;7.102;2023-05-07T00:53:56;15.00;99.90
32446;DHT22;18899;50.748;7.102;2023-05-07T00:56:21;14.90;99.90
32446;DHT22;18899;50.748;7.102;2023-05-07T00:58:48;14.80;99.90
32446;DHT22;18899;50.748;7.102;2023-05-07T01:01:13;14.70;99.90
32446;DHT22;18899;50.748;7.102;2023-05-07T01:03:41;14.60;99.90
32446;DHT22;18899;50.748;7.102;2023-05-07T01:06:07;14.50;99.90
32446;DHT22;18899;50.748;7.102;2023-05-07T01:08:34;14.50;99.90
32446;DHT22;18899;50.748;7.102;2023-05-07T01:11:00;14.50;99.90
32446;DHT22;18899;50.748;7.102;2023-05-07T01:13:27;14.50;99.90
32446;DHT22;18899;50.748;7.102;2023-05-07T01:15:53;14.60;99.90
32446;DHT22;18899;50.748;7.102;2023-05-07T01:18:18;14.60;99.90
32446;DHT22;18899;50.748;7.102;2023-05-07T01:20:45;14.60;99.90
32446;DHT22;18899;50.748;7.102;2023-05-07T01:23:11;14.50;99.90
32446;DHT22;18899;50.748;7.102;2023-05-07T01:25:37;14.50;99.90
32446;DHT22;18899;50.748;7.102;2023-05-07T01:28:03;14.40;99.90
32446;DHT22;18899;50.748;7.102;2023-05-07T01:30:29;14.40;99.90
32446;DHT22;18899;50.748;7.102;2023-05-07T01:35:30;14.40;99.90
32446;DHT22;18899;50.748;7.102;2023-05-07T01:37:57;14.40;99.90
32446;DHT22;18899;50.748;7.102;2023-05-07T01:40:24;14.40;99.90
32446;DHT22;18899;50.748;7.102;2023-05-07T01:42:51;14.40;99.90
32446;DHT22;18899;50.748;7.102;2023-05-07T01:45:17;14.50;99.90
32446;DHT22;18899;50.748;7.102;2023-05-07T01:47:42;14.60;99.90
32446;DHT22;18899;50.748;7.102;2023-05-07T01:50:09;14.50;99.90
32446;DHT22;18899;50.748;7.102;2023-05-07T01:52:37;14.50;99.90
32446;DHT22;18899;50.748;7.102;2023-05-07T01:55:03;14.70;99.90
32446;DHT22;18899;50.748;7.102;2023-05-07T01:57:29;14.70;99.90
32446;DHT22;18899;50.748;7.102;2023-05-07T01:59:54;14.80;99.90
32446;DHT22;18899;50.748;7.102;2023-05-07T02:02:20;14.80;99.90
32446;DHT22;18899;50.748;7.102;2023-05-07T02:04:45;14.80;99.90
32446;DHT22;18899;50.748;7.102;2023-05-07T02:07:11;14.90;99.90
32446;DHT22;18899;50.748;7.102;2023-05-07T02:09:36;14.80;99.90
32446;DHT22;18899;50.748;7.102;2023-05-07T02:12:02;14.70;99.90
32446;DHT22;18899;50.748;7.102;2023-05-07T02:14:28;14.70;99.90
32446;DHT22;18899;50.748;7.102;2023-05-07T02:16:53;14.70;99.90
32446;DHT22;18899;50.748;7.102;2023-05-07T02:19:19;14.70;99.90
32446;DHT22;18899;50.748;7.102;2023-05-07T02:21:46;14.90;99.90
32446;DHT22;18899;50.748;7.102;2023-05-07T02:24:12;14.90;99.90
32446;DHT22;18899;50.748;7.102;2023-05-07T02:26:37;14.90;99.90
32446;DHT22;18899;50.748;7.102;2023-05-07T02:29:03;14.80;99.90
32446;DHT22;18899;50.748;7.102;2023-05-07T02:31:28;14.80;99.90
32446;DHT22;18899;50.748;7.102;2023-05-07T02:33:54;14.80;99.90
32446;DHT22;18899;50.748;7.102;2023-05-07T02:36:19;14.90;99.90
32446;DHT22;18899;50.748;7.102;2023-05-07T02:38:45;14.90;99.90
32446;DHT22;18899;50.748;7.102;2023-05-07T02:41:10;14.80;99.90
32446;DHT22;18899;50.748;7.102;2023-05-07T02:43:36;14.70;99.90
32446;DHT22;18899;50.748;7.102;2023-05-07T02:46:08;14.60;99.90
32446;DHT22;18899;50.748;7.102;2023-05-07T02:48:34;14.70;99.90
32446;DHT22;18899;50.748;7.102;2023-05-07T02:51:00;14.70;99.90
32446;DHT22;18899;50.748;7.102;2023-05-07T02:53:26;14.70;99.90
32446;DHT22;18899;50.748;7.102;2023-05-07T02:55:53;14.60;99.90
32446;DHT22;18899;50.748;7.102;2023-05-07T02:58:19;14.70;99.90
32446;DHT22;18899;50.748;7.102;2023-05-07T03:00:44;14.80;99.90
32446;DHT22;18899;50.748;7.102;2023-05-07T03:03:10;14.60;99.90
32446;DHT22;18899;50.748;7.102;2023-05-07T03:05:36;14.40;99.90
32446;DHT22;18899;50.748;7.102;2023-05-07T03:08:02;14.30;99.90
32446;DHT22;18899;50.748;7.102;2023-05-07T03:10:28;14.20;99.90
32446;DHT22;18899;50.748;7.102;2023-05-07T03:12:53;14.10;99.90
32446;DHT22;18899;50.748;7.102;2023-05-07T03:15:19;14.10;99.90
32446;DHT22;18899;50.748;7.102;2023-05-07T03:17:44;14.00;99.90
32446;DHT22;18899;50.748;7.102;2023-05-07T03:20:10;14.00;99.90
32446;DHT22;18899;50.748;7.102;2023-05-07T03:22:36;14.00;99.90
32446;DHT22;18899;50.748;7.102;2023-05-07T03:25:01;13.90;99.90
32446;DHT22;18899;50.748;7.102;2023-05-07T03:27:27;13.90;99.90
32446;DHT22;18899;50.748;7.102;2023-05-07T03:29:52;13.90;99.90
32446;DHT22;18899;50.748;7.102;2023-05-07T03:32:18;13.90;99.90
32446;DHT22;18899;50.748;7.102;2023-05-07T03:34:44;13.90;99.90
32446;DHT22;18899;50.748;7.102;2023-05-07T03:37:09;14.00;99.90
32446;DHT22;18899;50.748;7.102;2023-05-07T03:39:35;14.00;99.90
32446;DHT22;18899;50.748;7.102;2023-05-07T03:42:00;14.00;99.90
32446;DHT22;18899;50.748;7.102;2023-05-07T03:44:26;13.90;99.90
32446;DHT22;18899;50.748;7.102;2023-05-07T03:46:52;13.90;99.90
32446;DHT22;18899;50.748;7.102;2023-05-07T03:49:17;13.90;99.90
32446;DHT22;18899;50.748;7.102;2023-05-07T03:51:43;13.90;99.90
32446;DHT22;18899;50.748;7.102;2023-05-07T03:54:08;13.90;99.90
32446;DHT22;18899;50.748;7.102;2023-05-07T03:56:34;13.90;99.90
32446;DHT22;18899;50.748;7.102;2023-05-07T03:59:01;13.90;99.90
32446;DHT22;18899;50.748;7.102;2023-05-07T04:01:26;13.90;99.90
32446;DHT22;18899;50.748;7.102;2023-05-07T04:03:52;14.00;99.90
32446;DHT22;18899;50.748;7.102;2023-05-07T04:06:17;14.00;99.90
32446;DHT22;18899;50.748;7.102;2023-05-07T04:08:43;14.00;99.90
32446;DHT22;18899;50.748;7.102;2023-05-07T04:11:09;14.10;99.90
32446;DHT22;18899;50.748;7.102;2023-05-07T04:13:34;14.10;99.90
32446;DHT22;18899;50.748;7.102;2023-05-07T04:16:02;14.20;99.90
32446;DHT22;18899;50.748;7.102;2023-05-07T04:18:28;14.20;99.90
32446;DHT22;18899;50.748;7.102;2023-05-07T04:20:53;14.30;99.90
32446;DHT22;18899;50.748;7.102;2023-05-07T04:23:19;14.20;99.90
32446;DHT22;18899;50.748;7.102;2023-05-07T04:25:45;14.30;99.90
32446;DHT22;18899;50.748;7.102;2023-05-07T04:28:11;14.40;99.90
32446;DHT22;18899;50.748;7.102;2023-05-07T04:30:37;14.40;99.90
32446;DHT22;18899;50.748;7.102;2023-05-07T04:33:02;14.50;99.90
32446;DHT22;18899;50.748;7.102;2023-05-07T04:35:28;14.50;99.90
32446;DHT22;18899;50.748;7.102;2023-05-07T04:37:53;14.60;99.90
32446;DHT22;18899;50.748;7.102;2023-05-07T04:40:19;14.70;99.90
32446;DHT22;18899;50.748;7.102;2023-05-07T04:42:45;14.70;99.90
32446;DHT22;18899;50.748;7.102;2023-05-07T04:45:11;14.70;99.90
32446;DHT22;18899;50.748;7.102;2023-05-07T04:47:37;14.60;99.90
32446;DHT22;18899;50.748;7.102;2023-05-07T04:50:03;14.60;99.90
32446;DHT22;18899;50.748;7.102;2023-05-07T04:52:29;14.60;99.90
32446;DHT22;18899;50.748;7.102;2023-05-07T04:54:55;14.70;99.90
32446;DHT22;18899;50.748;7.102;2023-05-07T04:57:21;14.80;99.90
32446;DHT22;18899;50.748;7.102;2023-05-07T04:59:46;14.80;99.90
32446;DHT22;18899;50.748;7.102;2023-05-07T05:02:12;14.80;99.90
32446;DHT22;18899;50.748;7.102;2023-05-07T05:04:37;14.80;99.90
32446;DHT22;18899;50.748;7.102;2023-05-07T05:07:03;14.80;99.90
32446;DHT22;18899;50.748;7.102;2023-05-07T05:09:29;14.80;99.90
32446;DHT22;18899;50.748;7.102;2023-05-07T05:11:55;14.80;99.90
32446;DHT22;18899;50.748;7.102;2023-05-07T05:14:21;14.90;99.90
32446;DHT22;18899;50.748;7.102;2023-05-07T05:16:46;14.90;99.90
32446;DHT22;18899;50.748;7.102;2023-05-07T05:19:12;15.00;99.90
32446;DHT22;18899;50.748;7.102;2023-05-07T05:21:37;15.30;99.90
32446;DHT22;18899;50.748;7.102;2023-05-07T05:24:03;15.50;99.90
32446;DHT22;18899;50.748;7.102;2023-05-07T05:26:29;15.50;99.90
32446;DHT22;18899;50.748;7.102;2023-05-07T05:28:54;15.60;99.90
32446;DHT22;18899;50.748;7.102;2023-05-07T05:31:20;15.80;99.90
32446;DHT22;18899;50.748;7.102;2023-05-07T05:33:45;16.00;99.90
32446;DHT22;18899;50.748;7.102;2023-05-07T05:36:11;16.20;99.90
32446;DHT22;18899;50.748;7.102;2023-05-07T05:38:38;16.20;99.90
32446;DHT22;18899;50.748;7.102;2023-05-07T05:41:04;16.30;99.90
32446;DHT22;18899;50.748;7.102;2023-05-07T05:43:30;16.30;99.90
32446;DHT22;18899;50.748;7.102;2023-05-07T05:45:56;16.50;99.90
32446;DHT22;18899;50.748;7.102;2023-05-07T05:48:22;16.50;99.90
32446;DHT22;18899;50.748;7.102;2023-05-07T05:50:48;16.50;99.90
32446;DHT22;18899;50.748;7.102;2023-05-07T05:53:13;16.60;99.90
32446;DHT22;18899;50.748;7.102;2023-05-07T05:55:39;16.60;99.90
32446;DHT22;18899;50.748;7.102;2023-05-07T05:58:04;16.70;99.90
32446;DHT22;18899;50.748;7.102;2023-05-07T06:00:30;16.60;99.90
32446;DHT22;18899;50.748;7.102;2023-05-07T06:02:56;16.50;99.90
32446;DHT22;18899;50.748;7.102;2023-05-07T06:05:21;16.50;99.90
32446;DHT22;18899;50.748;7.102;2023-05-07T06:07:47;16.40;99.90
32446;DHT22;18899;50.748;7.102;2023-05-07T06:10:12;16.80;99.90
32446;DHT22;18899;50.748;7.102;2023-05-07T06:12:38;17.40;99.90
32446;DHT22;18899;50.748;7.102;2023-05-07T06:15:04;18.10;99.90
32446;DHT22;18899;50.748;7.102;2023-05-07T06:17:30;18.60;99.90
32446;DHT22;18899;50.748;7.102;2023-05-07T06:19:55;18.70;99.90
32446;DHT22;18899;50.748;7.102;2023-05-07T06:22:21;18.80;99.90
32446;DHT22;18899;50.748;7.102;2023-05-07T06:24:47;18.90;99.90
32446;DHT22;18899;50.748;7.102;2023-05-07T06:27:12;19.20;99.90
32446;DHT22;18899;50.748;7.102;2023-05-07T06:29:38;19.20;99.90
32446;DHT22;18899;50.748;7.102;2023-05-07T06:32:21;19.10;99.90
32446;DHT22;18899;50.748;7.102;2023-05-07T06:34:47;19.00;99.90
32446;DHT22;18899;50.748;7.102;2023-05-07T06:37:12;18.90;99.90
32446;DHT22;18899;50.748;7.102;2023-05-07T06:39:38;19.20;99.90
32446;DHT22;18899;50.748;7.102;2023-05-07T06:42:04;19.40;99.90
32446;DHT22;18899;50.748;7.102;2023-05-07T06:44:30;19.30;99.90
32446;DHT22;18899;50.748;7.102;2023-05-07T06:46:56;19.10;99.90
32446;DHT22;18899;50.748;7.102;2023-05-07T06:49:22;19.10;99.90
32446;DHT22;18899;50.748;7.102;2023-05-07T06:51:47;19.00;99.90
32446;DHT22;18899;50.748;7.102;2023-05-07T06:54:13;18.90;99.90
32446;DHT22;18899;50.748;7.102;2023-05-07T06:56:38;19.00;99.90
32446;DHT22;18899;50.748;7.102;2023-05-07T06:59:04;19.00;99.90
32446;DHT22;18899;50.748;7.102;2023-05-07T07:01:30;18.80;99.90
32446;DHT22;18899;50.748;7.102;2023-05-07T07:03:55;18.90;99.90
32446;DHT22;18899;50.748;7.102;2023-05-07T07:06:21;18.90;99.90
32446;DHT22;18899;50.748;7.102;2023-05-07T07:08:46;19.00;99.90
32446;DHT22;18899;50.748;7.102;2023-05-07T07:11:12;19.10;99.90
32446;DHT22;18899;50.748;7.102;2023-05-07T07:13:37;19.10;99.90
32446;DHT22;18899;50.748;7.102;2023-05-07T07:16:03;19.20;99.90
32446;DHT22;18899;50.748;7.102;2023-05-07T07:18:29;19.30;99.90
32446;DHT22;18899;50.748;7.102;2023-05-07T07:20:54;19.60;99.90
32446;DHT22;18899;50.748;7.102;2023-05-07T07:23:20;19.90;99.90
32446;DHT22;18899;50.748;7.102;2023-05-07T07:25:46;20.00;99.90
32446;DHT22;18899;50.748;7.102;2023-05-07T07:28:11;20.30;99.90
32446;DHT22;18899;50.748;7.102;2023-05-07T07:30:37;20.60;99.90
32446;DHT22;18899;50.748;7.102;2023-05-07T07:33:03;20.80;99.90
32446;DHT22;18899;50.748;7.102;2023-05-07T07:35:29;20.70;99.90
32446;DHT22;18899;50.748;7.102;2023-05-07T07:37:55;20.20;99.90
32446;DHT22;18899;50.748;7.102;2023-05-07T07:40:21;20.00;99.90
32446;DHT22;18899;50.748;7.102;2023-05-07T07:42:46;19.90;99.90
32446;DHT22;18899;50.748;7.102;2023-05-07T07:45:12;19.80;99.90
32446;DHT22;18899;50.748;7.102;2023-05-07T07:47:39;19.70;99.90
32446;DHT22;18899;50.748;7.102;2023-05-07T07:50:05;20.20;99.90
32446;DHT22;18899;50.748;7.102;2023-05-07T07:52:31;20.40;99.90
32446;DHT22;18899;50.748;7.102;2023-05-07T07:54:56;20.70;99.90
32446;DHT22;18899;50.748;7.102;2023-05-07T07:57:22;20.70;99.90
32446;DHT22;18899;50.748;7.102;2023-05-07T07:59:47;20.80;99.90
32446;DHT22;18899;50.748;7.102;2023-05-07T08:02:13;20.80;99.90
32446;DHT22;18899;50.748;7.102;2023-05-07T08:04:38;20.90;99.90
32446;DHT22;18899;50.748;7.102;2023-05-07T08:07:04;21.10;99.90
32446;DHT22;18899;50.748;7.102;2023-05-07T08:09:29;21.10;99.90
32446;DHT22;18899;50.748;7.102;2023-05-07T08:11:55;21.40;99.90
32446;DHT22;18899;50.748;7.102;2023-05-07T08:14:21;21.50;99.90
32446;DHT22;18899;50.748;7.102;2023-05-07T08:16:46;21.70;99.90
32446;DHT22;18899;50.748;7.102;2023-05-07T08:19:12;21.80;99.90
32446;DHT22;18899;50.748;7.102;2023-05-07T08:21:40;22.00;99.90
32446;DHT22;18899;50.748;7.102;2023-05-07T08:24:06;22.10;99.90
32446;DHT22;18899;50.748;7.102;2023-05-07T08:26:32;22.30;99.90
32446;DHT22;18899;50.748;7.102;2023-05-07T08:28:57;22.60;99.90
32446;DHT22;18899;50.748;7.102;2023-05-07T08:31:23;23.00;99.90
32446;DHT22;18899;50.748;7.102;2023-05-07T08:33:48;23.30;99.90
32446;DHT22;18899;50.748;7.102;2023-05-07T08:36:14;23.70;99.90
32446;DHT22;18899;50.748;7.102;2023-05-07T08:38:39;24.20;99.90
32446;DHT22;18899;50.748;7.102;2023-05-07T08:41:10;24.20;99.90
32446;DHT22;18899;50.748;7.102;2023-05-07T08:43:38;24.50;98.80
32446;DHT22;18899;50.748;7.102;2023-05-07T08:46:06;24.50;99.90
32446;DHT22;18899;50.748;7.102;2023-05-07T08:48:34;24.60;98.80
32446;DHT22;18899;50.748;7.102;2023-05-07T08:51:00;24.40;99.20
32446;DHT22;18899;50.748;7.102;2023-05-07T08:53:26;25.00;96.50
32446;DHT22;18899;50.748;7.102;2023-05-07T08:55:52;25.50;95.40
32446;DHT22;18899;50.748;7.102;2023-05-07T08:58:18;25.80;93.10
32446;DHT22;18899;50.748;7.102;2023-05-07T09:00:44;25.70;92.40
32446;DHT22;18899;50.748;7.102;2023-05-07T09:03:09;25.60;92.00
32446;DHT22;18899;50.748;7.102;2023-05-07T09:05:38;25.20;95.20
32446;DHT22;18899;50.748;7.102;2023-05-07T09:08:06;25.60;92.40
32446;DHT22;18899;50.748;7.102;2023-05-07T09:10:34;26.60;87.30
32446;DHT22;18899;50.748;7.102;2023-05-07T09:13:00;27.20;88.20
32446;DHT22;18899;50.748;7.102;2023-05-07T09:15:28;26.60;90.00
32446;DHT22;18899;50.748;7.102;2023-05-07T09:17:53;26.20;89.90
32446;DHT22;18899;50.748;7.102;2023-05-07T09:20:19;26.40;88.20
32446;DHT22;18899;50.748;7.102;2023-05-07T09:22:44;26.30;90.40
32446;DHT22;18899;50.748;7.102;2023-05-07T09:25:10;27.30;84.60
32446;DHT22;18899;50.748;7.102;2023-05-07T09:27:36;28.40;79.30
32446;DHT22;18899;50.748;7.102;2023-05-07T09:30:06;27.60;81.80
32446;DHT22;18899;50.748;7.102;2023-05-07T09:32:37;27.70;78.80
32446;DHT22;18899;50.748;7.102;2023-05-07T09:35:03;28.10;78.00
32446;DHT22;18899;50.748;7.102;2023-05-07T09:37:30;28.10;79.70
32446;DHT22;18899;50.748;7.102;2023-05-07T09:39:56;27.90;79.80
32446;DHT22;18899;50.748;7.102;2023-05-07T09:42:25;28.30;73.50
32446;DHT22;18899;50.748;7.102;2023-05-07T09:44:52;28.30;75.70
32446;DHT22;18899;50.748;7.102;2023-05-07T09:47:23;27.90;75.50
32446;DHT22;18899;50.748;7.102;2023-05-07T09:49:50;27.20;78.20
32446;DHT22;18899;50.748;7.102;2023-05-07T09:52:16;26.60;78.80
32446;DHT22;18899;50.748;7.102;2023-05-07T09:54:43;26.30;83.90
32446;DHT22;18899;50.748;7.102;2023-05-07T09:57:11;26.60;81.40
32446;DHT22;18899;50.748;7.102;2023-05-07T09:59:38;26.90;80.10
32446;DHT22;18899;50.748;7.102;2023-05-07T10:02:04;27.20;77.50
32446;DHT22;18899;50.748;7.102;2023-05-07T10:04:31;27.30;81.20
32446;DHT22;18899;50.748;7.102;2023-05-07T10:06:57;27.80;77.20
32446;DHT22;18899;50.748;7.102;2023-05-07T10:09:25;28.30;76.70
32446;DHT22;18899;50.748;7.102;2023-05-07T10:11:52;28.40;74.10
32446;DHT22;18899;50.748;7.102;2023-05-07T10:14:20;28.60;78.30
32446;DHT22;18899;50.748;7.102;2023-05-07T10:16:48;28.20;74.90
32446;DHT22;18899;50.748;7.102;2023-05-07T10:19:14;27.30;79.00
32446;DHT22;18899;50.748;7.102;2023-05-07T10:21:44;26.80;82.50
32446;DHT22;18899;50.748;7.102;2023-05-07T10:24:20;26.50;82.10
32446;DHT22;18899;50.748;7.102;2023-05-07T10:26:49;26.70;85.90
32446;DHT22;18899;50.748;7.102;2023-05-07T10:29:45;27.10;80.90
32446;DHT22;18899;50.748;7.102;2023-05-07T10:32:19;27.10;81.10
32446;DHT22;18899;50.748;7.102;2023-05-07T10:34:53;27.20;81.80
32446;DHT22;18899;50.748;7.102;2023-05-07T10:37:20;27.20;82.30
32446;DHT22;18899;50.748;7.102;2023-05-07T10:39:46;27.50;77.20
32446;DHT22;18899;50.748;7.102;2023-05-07T10:42:14;28.00;77.60
32446;DHT22;18899;50.748;7.102;2023-05-07T10:44:39;28.20;77.60
32446;DHT22;18899;50.748;7.102;2023-05-07T10:47:16;28.00;78.90
32446;DHT22;18899;50.748;7.102;2023-05-07T10:52:23;27.00;81.30
32446;DHT22;18899;50.748;7.102;2023-05-07T10:57:40;26.40;81.30
32446;DHT22;18899;50.748;7.102;2023-05-07T11:05:31;27.80;75.20
32446;DHT22;18899;50.748;7.102;2023-05-07T11:07:58;27.70;78.00
32446;DHT22;18899;50.748;7.102;2023-05-07T11:10:47;27.10;81.00
32446;DHT22;18899;50.748;7.102;2023-05-07T11:13:12;26.50;83.20
32446;DHT22;18899;50.748;7.102;2023-05-07T11:15:41;26.40;82.00
32446;DHT22;18899;50.748;7.102;2023-05-07T11:18:08;26.70;82.70
32446;DHT22;18899;50.748;7.102;2023-05-07T11:20:54;26.70;79.30
32446;DHT22;18899;50.748;7.102;2023-05-07T11:26:06;26.00;79.90
32446;DHT22;18899;50.748;7.102;2023-05-07T11:28:40;25.60;84.40
32446;DHT22;18899;50.748;7.102;2023-05-07T11:31:06;25.50;85.50
32446;DHT22;18899;50.748;7.102;2023-05-07T11:33:33;25.70;83.00
32446;DHT22;18899;50.748;7.102;2023-05-07T11:36:00;25.80;84.00
32446;DHT22;18899;50.748;7.102;2023-05-07T11:38:26;25.80;85.10
32446;DHT22;18899;50.748;7.102;2023-05-07T11:40:58;25.70;83.20
32446;DHT22;18899;50.748;7.102;2023-05-07T11:43:26;25.70;82.80
32446;DHT22;18899;50.748;7.102;2023-05-07T11:45:52;25.60;81.30
32446;DHT22;18899;50.748;7.102;2023-05-07T11:48:17;25.60;81.20
32446;DHT22;18899;50.748;7.102;2023-05-07T11:50:59;25.50;82.10
32446;DHT22;18899;50.748;7.102;2023-05-07T11:53:25;25.50;77.90
32446;DHT22;18899;50.748;7.102;2023-05-07T11:55:57;25.30;78.90
32446;DHT22;18899;50.748;7.102;2023-05-07T11:58:24;25.20;81.50
32446;DHT22;18899;50.748;7.102;2023-05-07T12:00:51;25.30;80.20
32446;DHT22;18899;50.748;7.102;2023-05-07T12:03:17;25.30;78.70
32446;DHT22;18899;50.748;7.102;2023-05-07T12:05:47;25.10;80.20
32446;DHT22;18899;50.748;7.102;2023-05-07T12:08:16;24.70;85.10
32446;DHT22;18899;50.748;7.102;2023-05-07T12:10:42;24.60;87.40
32446;DHT22;18899;50.748;7.102;2023-05-07T12:13:18;24.30;89.00
32446;DHT22;18899;50.748;7.102;2023-05-07T12:15:44;24.20;86.90
32446;DHT22;18899;50.748;7.102;2023-05-07T12:18:13;23.90;87.30
32446;DHT22;18899;50.748;7.102;2023-05-07T12:20:39;23.80;86.50
32446;DHT22;18899;50.748;7.102;2023-05-07T12:23:05;23.60;89.10
32446;DHT22;18899;50.748;7.102;2023-05-07T12:25:41;23.50;91.50
32446;DHT22;18899;50.748;7.102;2023-05-07T12:28:17;23.30;91.40
32446;DHT22;18899;50.748;7.102;2023-05-07T12:30:44;23.20;90.30
32446;DHT22;18899;50.748;7.102;2023-05-07T12:33:10;23.10;90.90
32446;DHT22;18899;50.748;7.102;2023-05-07T12:35:38;23.00;90.90
32446;DHT22;18899;50.748;7.102;2023-05-07T12:38:11;22.80;90.50
32446;DHT22;18899;50.748;7.102;2023-05-07T12:40:41;22.90;90.10
32446;DHT22;18899;50.748;7.102;2023-05-07T12:43:08;23.00;90.70
32446;DHT22;18899;50.748;7.102;2023-05-07T12:45:41;22.80;94.00
32446;DHT22;18899;50.748;7.102;2023-05-07T12:48:09;22.80;92.60
32446;DHT22;18899;50.748;7.102;2023-05-07T12:50:35;22.60;93.90
32446;DHT22;18899;50.748;7.102;2023-05-07T12:53:03;22.30;99.90
32446;DHT22;18899;50.748;7.102;2023-05-07T12:55:31;21.70;99.90
32446;DHT22;18899;50.748;7.102;2023-05-07T12:57:57;21.10;99.90
32446;DHT22;18899;50.748;7.102;2023-05-07T13:00:34;20.50;99.90
32446;DHT22;18899;50.748;7.102;2023-05-07T13:02:59;19.90;99.90
32446;DHT22;18899;50.748;7.102;2023-05-07T13:05:25;19.50;99.90
32446;DHT22;18899;50.748;7.102;2023-05-07T13:07:54;19.20;99.90
32446;DHT22;18899;50.748;7.102;2023-05-07T13:10:21;19.00;99.90
32446;DHT22;18899;50.748;7.102;2023-05-07T13:12:46;18.80;99.90
32446;DHT22;18899;50.748;7.102;2023-05-07T13:15:12;18.60;99.90
32446;DHT22;18899;50.748;7.102;2023-05-07T13:17:37;18.40;99.90
32446;DHT22;18899;50.748;7.102;2023-05-07T13:20:03;18.40;99.90
32446;DHT22;18899;50.748;7.102;2023-05-07T13:22:29;18.40;99.90
32446;DHT22;18899;50.748;7.102;2023-05-07T13:24:54;18.50;99.90
32446;DHT22;18899;50.748;7.102;2023-05-07T13:27:20;18.60;99.90
32446;DHT22;18899;50.748;7.102;2023-05-07T13:29:46;18.80;99.90
32446;DHT22;18899;50.748;7.102;2023-05-07T13:32:11;19.00;99.90
32446;DHT22;18899;50.748;7.102;2023-05-07T13:34:37;19.50;99.90
32446;DHT22;18899;50.748;7.102;2023-05-07T13:37:02;20.00;99.90
32446;DHT22;18899;50.748;7.102;2023-05-07T13:39:28;20.20;99.90
32446;DHT22;18899;50.748;7.102;2023-05-07T13:41:53;20.50;99.90
32446;DHT22;18899;50.748;7.102;2023-05-07T13:44:19;20.80;99.90
32446;DHT22;18899;50.748;7.102;2023-05-07T13:46:44;21.00;99.90
32446;DHT22;18899;50.748;7.102;2023-05-07T13:49:10;21.20;99.90
32446;DHT22;18899;50.748;7.102;2023-05-07T13:51:36;21.60;99.90
32446;DHT22;18899;50.748;7.102;2023-05-07T13:54:02;21.90;99.90
32446;DHT22;18899;50.748;7.102;2023-05-07T13:56:28;22.10;99.90
32446;DHT22;18899;50.748;7.102;2023-05-07T13:58:56;22.20;99.90
32446;DHT22;18899;50.748;7.102;2023-05-07T14:01:21;22.10;99.90
32446;DHT22;18899;50.748;7.102;2023-05-07T14:03:47;22.10;99.90
32446;DHT22;18899;50.748;7.102;2023-05-07T14:06:12;22.10;99.90
32446;DHT22;18899;50.748;7.102;2023-05-07T14:08:39;21.90;99.90
32446;DHT22;18899;50.748;7.102;2023-05-07T14:11:05;22.00;99.90
32446;DHT22;18899;50.748;7.102;2023-05-07T14:13:31;22.20;99.90
32446;DHT22;18899;50.748;7.102;2023-05-07T14:15:57;22.30;99.90
32446;DHT22;18899;50.748;7.102;2023-05-07T14:18:22;22.30;99.90
32446;DHT22;18899;50.748;7.102;2023-05-07T14:20:48;22.20;99.90
32446;DHT22;18899;50.748;7.102;2023-05-07T14:23:14;22.30;99.90
32446;DHT22;18899;50.748;7.102;2023-05-07T14:25:40;22.20;99.90
32446;DHT22;18899;50.748;7.102;2023-05-07T14:28:06;22.10;99.90
32446;DHT22;18899;50.748;7.102;2023-05-07T14:30:32;21.90;99.90
32446;DHT22;18899;50.748;7.102;2023-05-07T14:32:57;21.70;99.90
32446;DHT22;18899;50.748;7.102;2023-05-07T14:35:23;21.50;99.90
32446;DHT22;18899;50.748;7.102;2023-05-07T14:37:48;21.50;99.90
32446;DHT22;18899;50.748;7.102;2023-05-07T14:40:14;21.40;99.90
32446;DHT22;18899;50.748;7.102;2023-05-07T14:42:40;21.40;99.90
32446;DHT22;18899;50.748;7.102;2023-05-07T14:45:06;21.40;99.90
32446;DHT22;18899;50.748;7.102;2023-05-07T14:47:31;21.50;99.90
32446;DHT22;18899;50.748;7.102;2023-05-07T14:49:57;21.40;99.90
32446;DHT22;18899;50.748;7.102;2023-05-07T14:52:23;21.30;99.90
32446;DHT22;18899;50.748;7.102;2023-05-07T14:54:49;21.10;99.90
32446;DHT22;18899;50.748;7.102;2023-05-07T14:57:15;21.10;99.90
32446;DHT22;18899;50.748;7.102;2023-05-07T14:59:44;21.30;99.90
32446;DHT22;18899;50.748;7.102;2023-05-07T15:02:11;21.40;99.90
32446;DHT22;18899;50.748;7.102;2023-05-07T15:04:37;21.20;99.90
32446;DHT22;18899;50.748;7.102;2023-05-07T15:07:11;21.10;99.90
32446;DHT22;18899;50.748;7.102;2023-05-07T15:09:40;20.90;99.90
32446;DHT22;18899;50.748;7.102;2023-05-07T15:12:06;20.70;99.90
32446;DHT22;18899;50.748;7.102;2023-05-07T15:14:31;20.40;99.90
32446;DHT22;18899;50.748;7.102;2023-05-07T15:16:57;20.20;99.90
32446;DHT22;18899;50.748;7.102;2023-05-07T15:19:22;20.10;99.90
32446;DHT22;18899;50.748;7.102;2023-05-07T15:21:50;19.90;99.90
32446;DHT22;18899;50.748;7.102;2023-05-07T15:24:15;19.80;99.90
32446;DHT22;18899;50.748;7.102;2023-05-07T15:26:41;19.70;99.90
32446;DHT22;18899;50.748;7.102;2023-05-07T15:29:06;19.80;99.90
32446;DHT22;18899;50.748;7.102;2023-05-07T15:31:35;19.70;99.90
32446;DHT22;18899;50.748;7.102;2023-05-07T15:34:02;19.60;99.90
32446;DHT22;18899;50.748;7.102;2023-05-07T15:36:28;19.40;99.90
32446;DHT22;18899;50.748;7.102;2023-05-07T15:38:53;19.20;99.90
32446;DHT22;18899;50.748;7.102;2023-05-07T15:41:20;19.00;99.90